createdAt,value
2018-06-23T00:02:15.075Z,19.67
2018-06-23T00:04:46.761Z,19.64
2018-06-23T00:07:17.857Z,19.62
2018-06-23T00:09:49.512Z,19.56
2018-06-23T00:12:21.676Z,19.49
2018-06-23T00:14:52.711Z,19.45
2018-06-23T00:17:23.717Z,19.47
2018-06-23T00:19:54.674Z,19.47
2018-06-23T00:22:25.837Z,19.42
2018-06-23T00:24:56.827Z,19.38
2018-06-23T00:27:28.725Z,19.46
2018-06-23T00:30:00.480Z,19.46
2018-06-23T00:32:31.729Z,19.48
2018-06-23T00:35:02.860Z,19.51
2018-06-23T00:37:33.790Z,19.50
2018-06-23T00:40:04.817Z,19.57
2018-06-23T00:42:35.279Z,19.67
2018-06-23T00:45:06.167Z,19.69
2018-06-23T00:47:37.152Z,19.56
2018-06-23T00:50:08.267Z,19.43
2018-06-23T00:52:40.020Z,19.36
2018-06-23T00:55:10.671Z,19.17
2018-06-23T00:57:41.807Z,19.06
2018-06-23T01:00:13.059Z,18.90
2018-06-23T01:02:44.193Z,18.81
2018-06-23T01:05:16.068Z,18.73
2018-06-23T01:07:47.291Z,18.70
2018-06-23T01:10:18.326Z,18.60
2018-06-23T01:12:49.546Z,18.52
2018-06-23T01:15:21.322Z,18.50
2018-06-23T01:17:52.985Z,18.47
2018-06-23T01:20:24.017Z,18.51
2018-06-23T01:22:54.853Z,18.54
2018-06-23T01:25:25.747Z,18.59
2018-06-23T01:27:57.844Z,18.67
2018-06-23T01:30:28.770Z,18.76
2018-06-23T01:32:59.691Z,18.76
2018-06-23T01:35:30.645Z,18.76
2018-06-23T01:38:02.869Z,18.88
2018-06-23T01:40:33.875Z,18.96
2018-06-23T01:43:05.150Z,18.88
2018-06-23T01:45:36.180Z,18.78
2018-06-23T01:48:07.381Z,18.63
2018-06-23T01:50:40.051Z,18.44
2018-06-23T01:53:10.577Z,18.35
2018-06-23T01:55:42.559Z,18.23
2018-06-23T01:58:13.452Z,18.16
2018-06-23T02:00:44.635Z,18.06
2018-06-23T02:03:15.691Z,17.98
2018-06-23T02:05:46.663Z,17.96
2018-06-23T02:08:18.619Z,17.91
2018-06-23T02:10:49.664Z,17.85
2018-06-23T02:13:20.730Z,17.81
2018-06-23T02:15:56.735Z,17.78
2018-06-23T02:18:32.480Z,17.75
2018-06-23T02:21:08.449Z,17.69
2018-06-23T02:23:44.571Z,17.66
2018-06-23T02:26:21.160Z,17.57
2018-06-23T02:28:57.368Z,17.51
2018-06-23T02:31:33.290Z,17.46
2018-06-23T02:34:09.125Z,17.40
2018-06-23T02:36:40.137Z,17.41
2018-06-23T02:39:11.503Z,17.39
2018-06-23T02:41:42.667Z,17.33
2018-06-23T02:44:14.355Z,17.30
2018-06-23T02:46:44.853Z,17.26
2018-06-23T02:49:17.299Z,17.19
2018-06-23T02:51:48.195Z,17.18
2018-06-23T02:54:19.091Z,17.19
2018-06-23T02:56:50.063Z,17.15
2018-06-23T02:59:21.313Z,17.07
2018-06-23T03:01:52.342Z,17.04
2018-06-23T03:04:23.299Z,17.05
2018-06-23T03:06:54.483Z,17.06
2018-06-23T03:09:26.252Z,17.03
2018-06-23T03:11:57.262Z,16.98
2018-06-23T03:14:29.081Z,16.94
2018-06-23T03:17:00.849Z,16.91
2018-06-23T03:19:31.737Z,16.84
2018-06-23T03:22:03.318Z,16.78
2018-06-23T03:24:34.404Z,16.75
2018-06-23T03:27:05.450Z,16.71
2018-06-23T03:29:36.464Z,16.75
2018-06-23T03:32:08.991Z,16.78
2018-06-23T03:34:40.427Z,16.79
2018-06-23T03:37:11.619Z,16.83
2018-06-23T03:39:42.795Z,16.86
2018-06-23T03:42:15.014Z,16.84
2018-06-23T03:44:46.884Z,16.79
2018-06-23T03:47:17.665Z,16.76
2018-06-23T03:49:49.531Z,16.79
2018-06-23T03:52:21.202Z,16.83
2018-06-23T03:54:52.163Z,16.86
2018-06-23T03:57:23.369Z,16.89
2018-06-23T03:59:54.417Z,16.94
2018-06-23T04:02:25.396Z,17.02
2018-06-23T04:04:56.600Z,17.04
2018-06-23T04:07:27.562Z,17.06
2018-06-23T04:09:59.564Z,17.04
2018-06-23T04:12:30.769Z,17.00
2018-06-23T04:15:02.223Z,17.01
2018-06-23T04:17:33.357Z,17.01
2018-06-23T04:20:04.513Z,17.04
2018-06-23T04:22:35.839Z,17.06
2018-06-23T04:25:07.647Z,17.18
2018-06-23T04:27:39.172Z,17.21
2018-06-23T04:30:10.274Z,17.24
2018-06-23T04:32:41.858Z,17.36
2018-06-23T04:35:12.814Z,17.42
2018-06-23T04:37:44.237Z,17.45
2018-06-23T04:40:15.538Z,17.49
2018-06-23T04:42:46.706Z,17.62
2018-06-23T04:45:17.986Z,17.65
2018-06-23T04:47:49.109Z,17.71
2018-06-23T04:50:21.023Z,17.80
2018-06-23T04:52:52.061Z,17.91
2018-06-23T04:55:23.396Z,17.96
2018-06-23T04:57:54.504Z,18.13
2018-06-23T05:00:27.302Z,18.16
2018-06-23T05:03:00.921Z,18.19
2018-06-23T05:05:32.070Z,18.31
2018-06-23T05:08:03.315Z,18.39
2018-06-23T05:10:34.393Z,18.57
2018-06-23T05:13:05.682Z,18.65
2018-06-23T05:15:36.862Z,18.73
2018-06-23T05:18:08.202Z,18.73
2018-06-23T05:20:39.468Z,18.85
2018-06-23T05:23:11.479Z,19.02
2018-06-23T05:25:42.463Z,19.12
2018-06-23T05:28:13.525Z,19.21
2018-06-23T05:30:44.589Z,19.25
2018-06-23T05:33:17.855Z,19.38
2018-06-23T05:35:48.621Z,19.61
2018-06-23T05:38:19.855Z,19.72
2018-06-23T05:40:51.170Z,19.77
2018-06-23T05:43:22.391Z,19.94
2018-06-23T05:45:53.715Z,19.97
2018-06-23T05:48:24.210Z,20.08
2018-06-23T05:50:55.113Z,20.22
2018-06-23T05:53:26.617Z,20.30
2018-06-23T05:55:58.524Z,20.40
2018-06-23T05:58:30.023Z,20.36
2018-06-23T06:01:01.101Z,20.55
2018-06-23T06:03:33.499Z,20.75
2018-06-23T06:06:04.140Z,20.86
2018-06-23T06:08:34.787Z,20.95
2018-06-23T06:11:06.713Z,21.04
2018-06-23T06:13:38.072Z,21.20
2018-06-23T06:16:09.585Z,21.20
2018-06-23T06:18:40.848Z,21.35
2018-06-23T06:21:13.161Z,21.52
2018-06-23T06:23:45.938Z,22.29
2018-06-23T06:26:17.119Z,23.51
2018-06-23T06:28:48.279Z,24.35
2018-06-23T06:31:19.306Z,24.57
2018-06-23T06:33:51.556Z,25.05
2018-06-23T06:36:24.455Z,25.61
2018-06-23T06:38:55.593Z,26.17
2018-06-23T06:41:26.641Z,26.63
2018-06-23T06:43:57.894Z,27.09
2018-06-23T06:46:28.850Z,26.94
2018-06-23T06:49:00.087Z,27.28
2018-06-23T06:51:31.476Z,27.74
2018-06-23T06:54:03.555Z,28.19
2018-06-23T06:56:34.843Z,28.40
2018-06-23T06:59:06.372Z,28.83
2018-06-23T07:01:45.994Z,29.19
2018-06-23T07:04:18.063Z,29.01
2018-06-23T07:06:49.807Z,28.91
2018-06-23T07:09:21.102Z,29.24
2018-06-23T07:11:52.518Z,29.43
2018-06-23T07:14:23.577Z,29.60
2018-06-23T07:16:55.933Z,29.26
2018-06-23T07:19:27.633Z,29.31
2018-06-23T07:21:58.908Z,28.67
2018-06-23T07:24:30.538Z,28.48
2018-06-23T07:27:02.156Z,28.75
2018-06-23T07:29:34.011Z,29.02
2018-06-23T07:32:06.247Z,28.54
2018-06-23T07:34:38.878Z,28.71
2018-06-23T07:37:10.578Z,28.69
2018-06-23T07:39:41.759Z,29.08
2018-06-23T07:42:13.143Z,28.73
2018-06-23T07:44:44.662Z,28.83
2018-06-23T07:47:15.767Z,29.13
2018-06-23T07:49:47.212Z,29.81
2018-06-23T07:52:18.916Z,29.27
2018-06-23T07:54:51.389Z,28.75
2018-06-23T07:57:22.558Z,29.12
2018-06-23T07:59:54.738Z,29.99
2018-06-23T08:02:26.927Z,30.36
2018-06-23T08:04:59.066Z,29.87
2018-06-23T08:07:30.324Z,30.77
2018-06-23T08:10:03.298Z,31.44
2018-06-23T08:12:35.376Z,31.86
2018-06-23T08:15:07.080Z,31.76
2018-06-23T08:17:39.015Z,30.75
2018-06-23T08:20:10.988Z,30.62
2018-06-23T08:22:42.487Z,30.20
2018-06-23T08:25:16.829Z,31.43
2018-06-23T08:27:48.574Z,31.70
2018-06-23T08:30:20.052Z,31.55
2018-06-23T08:32:52.223Z,31.90
2018-06-23T08:35:24.355Z,32.39
2018-06-23T08:37:55.912Z,32.43
2018-06-23T08:40:27.376Z,33.15
2018-06-23T08:42:59.297Z,33.11
2018-06-23T08:45:32.135Z,31.68
2018-06-23T08:48:04.522Z,30.84
2018-06-23T08:50:36.761Z,31.79
2018-06-23T08:53:08.580Z,31.40
2018-06-23T08:55:40.423Z,30.84
2018-06-23T08:58:10.921Z,31.62
2018-06-23T09:00:42.467Z,32.23
2018-06-23T09:03:13.969Z,33.06
2018-06-23T09:05:45.274Z,32.03
2018-06-23T09:08:17.825Z,30.82
2018-06-23T09:10:49.478Z,31.87
2018-06-23T09:13:20.736Z,31.13
2018-06-23T09:15:52.945Z,30.26
2018-06-23T09:18:24.005Z,31.04
2018-06-23T09:20:57.113Z,32.76
2018-06-23T09:23:30.563Z,33.76
2018-06-23T09:26:03.291Z,34.83
2018-06-23T09:28:35.046Z,34.13
2018-06-23T09:31:07.521Z,33.08
2018-06-23T09:33:39.981Z,32.05
2018-06-23T09:36:11.287Z,32.18
2018-06-23T09:38:43.501Z,31.05
2018-06-23T09:41:15.879Z,32.28
2018-06-23T09:43:47.587Z,32.98
2018-06-23T09:46:18.713Z,32.29
2018-06-23T09:48:51.788Z,33.15
2018-06-23T09:51:23.779Z,33.55
2018-06-23T09:53:56.877Z,33.80
2018-06-23T09:56:29.275Z,33.25
2018-06-23T09:59:02.092Z,33.90
2018-06-23T10:01:34.791Z,33.39
2018-06-23T10:04:06.853Z,32.28
2018-06-23T10:06:38.201Z,31.11
2018-06-23T10:09:11.780Z,31.86
2018-06-23T10:11:43.940Z,31.62
2018-06-23T10:14:17.810Z,31.83
2018-06-23T10:16:50.041Z,32.20
2018-06-23T10:19:21.618Z,31.75
2018-06-23T10:21:52.889Z,32.66
2018-06-23T10:24:24.711Z,32.93
2018-06-23T10:26:57.428Z,33.83
2018-06-23T10:29:28.567Z,34.07
2018-06-23T10:31:59.930Z,32.62
2018-06-23T10:34:32.225Z,32.78
2018-06-23T10:37:03.486Z,33.97
2018-06-23T10:39:34.641Z,33.73
2018-06-23T10:42:06.787Z,32.33
2018-06-23T10:44:38.717Z,32.03
2018-06-23T10:47:10.932Z,32.83
2018-06-23T10:49:42.656Z,33.31
2018-06-23T10:52:13.977Z,33.19
2018-06-23T10:54:46.110Z,33.03
2018-06-23T10:57:20.604Z,33.39
2018-06-23T10:59:52.204Z,32.63
2018-06-23T11:02:23.908Z,32.92
2018-06-23T11:04:55.354Z,33.44
2018-06-23T11:07:27.525Z,33.62
2018-06-23T11:09:59.240Z,34.12
2018-06-23T11:12:34.193Z,34.23
2018-06-23T11:15:07.632Z,33.95
2018-06-23T11:17:39.485Z,33.32
2018-06-23T11:20:10.873Z,33.36
2018-06-23T11:22:42.837Z,33.22
2018-06-23T11:25:14.431Z,33.63
2018-06-23T11:27:46.642Z,34.10
2018-06-23T11:30:18.514Z,34.31
2018-06-23T11:32:49.890Z,34.29
2018-06-23T11:35:21.592Z,34.37
2018-06-23T11:37:55.298Z,34.30
2018-06-23T11:40:27.645Z,34.71
2018-06-23T11:42:59.254Z,34.11
2018-06-23T11:45:31.929Z,34.64
2018-06-23T11:48:03.630Z,34.44
2018-06-23T11:50:36.564Z,34.40
2018-06-23T11:53:08.636Z,34.56
2018-06-23T11:55:41.230Z,33.85
2018-06-23T11:58:13.564Z,33.63
2018-06-23T12:00:45.278Z,33.38
2018-06-23T12:03:16.567Z,33.36
2018-06-23T12:05:47.639Z,32.50
2018-06-23T12:08:18.824Z,32.91
2018-06-23T12:10:50.112Z,33.14
2018-06-23T12:13:22.692Z,32.96
2018-06-23T12:15:54.165Z,32.41
2018-06-23T12:18:25.477Z,32.60
2018-06-23T12:20:56.806Z,32.71
2018-06-23T12:23:28.460Z,32.95
2018-06-23T12:26:08.156Z,33.59
2018-06-23T12:28:46.479Z,33.50
2018-06-23T12:31:24.478Z,32.93
2018-06-23T12:34:00.393Z,33.42
2018-06-23T12:36:42.702Z,33.11
2018-06-23T12:39:14.632Z,32.69
2018-06-23T12:41:49.926Z,32.53
2018-06-23T12:44:22.348Z,32.96
2018-06-23T12:46:53.869Z,32.57
2018-06-23T12:49:27.192Z,32.62
2018-06-23T12:51:59.649Z,32.49
2018-06-23T12:54:30.891Z,32.01
2018-06-23T12:57:02.247Z,31.77
2018-06-23T12:59:33.471Z,31.69
2018-06-23T13:02:04.609Z,32.28
2018-06-23T13:04:35.859Z,32.63
2018-06-23T13:07:09.640Z,31.78
2018-06-23T13:09:42.082Z,31.44
2018-06-23T13:12:14.173Z,30.68
2018-06-23T13:14:45.757Z,31.02
2018-06-23T13:17:18.503Z,31.52
2018-06-23T13:19:51.543Z,31.19
2018-06-23T13:22:24.601Z,31.10
2018-06-23T13:24:56.221Z,30.34
2018-06-23T13:27:27.760Z,31.03
2018-06-23T13:29:59.465Z,32.09
2018-06-23T13:32:34.133Z,31.90
2018-06-23T13:35:10.164Z,31.70
2018-06-23T13:37:43.176Z,31.38
2018-06-23T13:40:16.444Z,31.59
2018-06-23T13:42:50.993Z,32.28
2018-06-23T13:45:25.997Z,31.87
2018-06-23T13:47:57.471Z,30.62
2018-06-23T13:50:30.494Z,30.47
2018-06-23T13:53:01.997Z,30.63
2018-06-23T13:55:33.899Z,30.73
2018-06-23T13:58:05.392Z,31.10
2018-06-23T14:00:39.020Z,31.39
2018-06-23T14:03:10.569Z,31.05
2018-06-23T14:05:42.136Z,30.63
2018-06-23T14:08:14.262Z,30.46
2018-06-23T14:10:47.021Z,31.22
2018-06-23T14:13:20.121Z,31.62
2018-06-23T14:15:53.709Z,31.95
2018-06-23T14:18:26.088Z,31.93
2018-06-23T14:20:58.008Z,31.62
2018-06-23T14:23:34.836Z,31.71
2018-06-23T14:26:06.430Z,31.54
2018-06-23T14:28:37.732Z,31.67
2018-06-23T14:31:09.659Z,31.38
2018-06-23T14:33:41.963Z,31.23
2018-06-23T14:36:13.707Z,31.20
2018-06-23T14:38:44.425Z,31.26
2018-06-23T14:41:16.906Z,31.17
2018-06-23T14:43:48.017Z,31.45
2018-06-23T14:46:20.674Z,31.51
2018-06-23T14:48:53.557Z,31.15
2018-06-23T14:51:25.923Z,31.23
2018-06-23T14:53:57.308Z,30.78
2018-06-23T14:56:29.308Z,30.73
2018-06-23T14:59:00.736Z,30.74
2018-06-23T15:01:31.948Z,30.40
2018-06-23T15:04:03.911Z,30.11
2018-06-23T15:06:35.907Z,30.06
2018-06-23T15:09:23.452Z,29.99
2018-06-23T15:12:10.809Z,30.17
2018-06-23T15:14:42.213Z,30.02
2018-06-23T15:17:14.739Z,30.03
2018-06-23T15:19:46.120Z,30.11
2018-06-23T15:22:18.026Z,30.15
2018-06-23T15:24:50.064Z,30.04
2018-06-23T15:27:22.729Z,29.88
2018-06-23T15:29:55.084Z,29.86
2018-06-23T15:32:26.717Z,29.92
2018-06-23T15:34:57.924Z,29.79
2018-06-23T15:37:30.172Z,29.72
2018-06-23T15:40:01.424Z,29.66
2018-06-23T15:42:32.665Z,29.62
2018-06-23T15:45:05.177Z,29.36
2018-06-23T15:47:36.541Z,29.25
2018-06-23T15:50:07.796Z,28.85
2018-06-23T15:52:39.086Z,28.85
2018-06-23T15:55:11.284Z,28.66
2018-06-23T15:57:43.452Z,28.71
2018-06-23T16:00:15.620Z,28.74
2018-06-23T16:02:48.086Z,28.68
2018-06-23T16:05:19.769Z,28.57
2018-06-23T16:07:51.117Z,28.55
2018-06-23T16:10:25.161Z,28.43
2018-06-23T16:12:56.719Z,28.31
2018-06-23T16:15:28.056Z,28.26
2018-06-23T16:17:58.607Z,28.09
2018-06-23T16:20:29.064Z,28.00
2018-06-23T16:23:00.056Z,28.09
2018-06-23T16:25:32.092Z,28.06
2018-06-23T16:28:03.420Z,28.01
2018-06-23T16:30:34.959Z,27.85
2018-06-23T16:33:06.178Z,27.70
2018-06-23T16:47:28.480Z,27.17
2018-06-23T16:49:59.670Z,27.21
2018-06-23T16:52:31.008Z,27.30
2018-06-23T16:55:03.490Z,27.23
2018-06-23T16:57:39.101Z,27.22
2018-06-23T17:00:10.547Z,27.08
2018-06-23T17:02:43.106Z,26.98
2018-06-23T17:05:14.528Z,26.95
2018-06-23T17:07:46.424Z,26.85
2018-06-23T17:10:18.370Z,26.61
2018-06-23T17:12:49.413Z,26.57
2018-06-23T17:15:20.684Z,26.41
2018-06-23T17:17:52.833Z,26.33
2018-06-23T17:20:24.193Z,26.36
2018-06-23T17:22:55.432Z,26.33
2018-06-23T17:25:27.696Z,26.29
2018-06-23T17:28:00.635Z,26.10
2018-06-23T17:30:34.873Z,25.99
2018-06-23T17:33:06.746Z,25.93
2018-06-23T17:35:40.740Z,25.87
2018-06-23T17:38:12.247Z,25.75
2018-06-23T17:40:44.206Z,25.64
2018-06-23T17:43:17.880Z,25.56
2018-06-23T17:45:54.253Z,25.50
2018-06-23T17:48:27.257Z,25.42
2018-06-23T17:50:59.048Z,25.22
2018-06-23T17:53:31.001Z,25.23
2018-06-23T17:56:03.255Z,25.20
2018-06-23T17:58:34.260Z,25.07
2018-06-23T18:01:06.310Z,24.96
2018-06-23T18:03:39.357Z,24.93
2018-06-23T18:06:10.882Z,24.82
2018-06-23T18:08:43.208Z,24.67
2018-06-23T18:11:15.827Z,24.54
2018-06-23T18:13:47.223Z,24.44
2018-06-23T18:16:19.008Z,24.30
2018-06-23T18:18:50.816Z,24.19
2018-06-23T18:21:21.910Z,24.05
2018-06-23T18:23:53.230Z,23.93
2018-06-23T18:26:24.781Z,23.83
2018-06-23T18:28:55.903Z,23.69
2018-06-23T18:31:27.073Z,23.61
2018-06-23T18:33:58.352Z,23.51
2018-06-23T18:36:29.466Z,23.36
2018-06-23T18:39:00.549Z,23.17
2018-06-23T18:41:31.650Z,23.06
2018-06-23T18:44:03.209Z,22.96
2018-06-23T18:46:34.426Z,22.84
2018-06-23T18:49:05.533Z,22.76
2018-06-23T18:51:36.866Z,22.70
2018-06-23T18:54:08.221Z,22.61
2018-06-23T18:56:39.712Z,22.50
2018-06-23T18:59:11.188Z,22.36
2018-06-23T19:01:47.406Z,22.26
2018-06-23T19:04:20.010Z,22.25
2018-06-23T19:06:52.608Z,22.13
2018-06-23T19:09:25.462Z,22.03
2018-06-23T19:11:58.501Z,21.89
2018-06-23T19:14:30.945Z,21.73
2018-06-23T19:17:03.970Z,21.61
2018-06-23T19:19:36.554Z,21.51
2018-06-23T19:22:09.578Z,21.34
2018-06-23T19:24:43.359Z,21.21
2018-06-23T19:27:15.576Z,21.10
2018-06-23T19:29:49.818Z,20.93
2018-06-23T19:32:22.698Z,20.75
2018-06-23T19:34:57.091Z,20.62
2018-06-23T19:37:29.913Z,20.57
2018-06-23T19:40:06.015Z,20.47
2018-06-23T19:42:37.301Z,20.37
2018-06-23T19:45:08.557Z,20.31
2018-06-23T19:47:41.833Z,20.23
2018-06-23T19:50:13.497Z,20.20
2018-06-23T19:52:45.636Z,20.14
2018-06-23T19:55:18.252Z,20.06
2018-06-23T19:57:50.055Z,19.97
2018-06-23T20:00:22.060Z,19.94
2018-06-23T20:02:54.149Z,19.92
2018-06-23T20:05:27.786Z,19.81
2018-06-23T20:07:58.590Z,19.68
2018-06-23T20:10:30.548Z,19.55
2018-06-23T20:13:02.590Z,19.49
2018-06-23T20:15:35.103Z,19.36
2018-06-23T20:18:06.920Z,19.20
2018-06-23T20:20:41.111Z,19.05
2018-06-23T20:23:14.638Z,18.92
2018-06-23T20:25:46.469Z,18.80
2018-06-23T20:28:20.548Z,18.70
2018-06-23T20:30:53.046Z,18.60
2018-06-23T20:33:25.577Z,18.58
2018-06-23T20:35:58.480Z,18.56
2018-06-23T20:38:32.144Z,18.59
2018-06-23T20:41:05.578Z,18.57
2018-06-23T20:43:39.876Z,18.53
2018-06-23T20:46:13.293Z,18.47
2018-06-23T21:34:42.468Z,17.43
2018-06-23T21:37:14.777Z,17.39
2018-06-23T21:39:49.945Z,17.36
2018-06-23T21:42:23.070Z,17.39
2018-06-23T21:44:55.900Z,17.43
2018-06-23T21:47:27.955Z,17.43
2018-06-23T21:49:59.178Z,17.28
2018-06-23T21:52:33.191Z,17.07
2018-06-23T21:55:05.220Z,16.96
2018-06-23T21:57:40.105Z,16.95
2018-06-23T22:00:25.054Z,16.97
2018-06-23T22:02:56.656Z,16.71
2018-06-23T22:05:28.152Z,16.68
2018-06-23T22:07:59.864Z,16.64
2018-06-23T22:10:31.506Z,16.69
2018-06-23T22:13:02.883Z,16.66
2018-06-23T22:15:35.152Z,16.62
2018-06-23T22:18:06.958Z,16.64
2018-06-23T22:20:38.721Z,16.62
2018-06-23T22:23:10.210Z,16.59
2018-06-23T22:25:42.548Z,16.54
2018-06-23T22:28:14.409Z,16.45
2018-06-23T22:30:46.152Z,16.37
2018-06-23T22:33:17.416Z,16.30
2018-06-23T22:35:48.974Z,16.25
2018-06-23T22:38:21.422Z,16.23
2018-06-23T22:40:52.613Z,16.06
2018-06-23T22:43:23.225Z,15.99
2018-06-23T22:45:55.141Z,15.94
2018-06-23T22:48:26.267Z,15.88
2018-06-23T22:50:58.574Z,15.80
2018-06-23T22:53:29.851Z,15.76
2018-06-23T22:56:01.154Z,15.67
2018-06-23T22:58:32.494Z,15.51
2018-06-23T23:01:03.836Z,15.30
2018-06-23T23:03:35.635Z,15.08
2018-06-23T23:06:06.844Z,15.03
2018-06-23T23:08:38.052Z,15.01
2018-06-23T23:11:09.376Z,14.99
2018-06-23T23:13:41.769Z,14.90
2018-06-23T23:16:13.456Z,14.93
2018-06-23T23:18:45.087Z,14.91
2018-06-23T23:21:16.618Z,14.87
2018-06-23T23:23:47.678Z,14.88
2018-06-23T23:26:19.416Z,14.84
2018-06-23T23:28:50.456Z,14.75
2018-06-23T23:31:21.614Z,14.67
2018-06-23T23:33:53.839Z,14.70
2018-06-23T23:36:24.977Z,14.65
2018-06-23T23:38:56.242Z,14.54
2018-06-23T23:41:27.437Z,14.34
2018-06-23T23:43:58.741Z,14.19
2018-06-23T23:46:30.709Z,14.10
2018-06-23T23:49:01.647Z,14.15
2018-06-23T23:51:32.784Z,14.08
2018-06-23T23:54:04.011Z,14.03
2018-06-23T23:56:34.609Z,13.95
2018-06-23T23:59:06.392Z,13.87
